Time;durP1;ratioP1;P1;durP2;ratioP2;P2;SDS_P1;SDS_P2;PMS_P1;PMS_P2;Temp;Humidity;BMP_temperature;BMP_pressure;BME280_temperature;BME280_humidity;BME280_pressure;Samples;Min_cycle;Max_cycle;Signal;HPM_P1;HPM_P2
2024/02/06 00:02:00;;;;;;;3.73;2.30;;;;;;;;;;6260467;22;20453;-86
2024/02/06 00:05:00;;;;;;;4.60;2.97;;;;;;;;;;6180429;23;20471;-85
2024/02/06 00:08:06;;;;;;;4.33;2.50;;;;;;;;;;6216079;22;20416;-88
2024/02/06 00:10:50;;;;;;;3.30;2.37;;;;;;;;;;6273945;22;20442;-81
2024/02/06 00:13:40;;;;;;;5.10;2.93;;;;;;;;;;6245769;22;20435;-83
2024/02/06 00:16:48;;;;;;;3.43;2.70;;;;;;;;;;6249272;22;20416;-84
2024/02/06 00:19:48;;;;;;;2.20;1.93;;;;;;;;;;6249586;22;20446;-84
2024/02/06 00:22:54;;;;;;;5.00;2.10;;;;;;;;;;6254275;22;20399;-85
2024/02/06 00:25:42;;;;;;;4.20;2.27;;;;;;;;;;6269323;22;20412;-84
2024/02/06 00:32:08;;;;;;;5.17;2.10;;;;;;;;;;6238150;22;20499;-88
2024/02/06 00:34:59;;;;;;;5.10;2.23;;;;;;;;;;6249382;22;20411;-86
2024/02/06 00:38:01;;;;;;;2.60;2.03;;;;;;;;;;6174281;22;20715;-83
2024/02/06 00:41:14;;;;;;;7.77;2.40;;;;;;;;;;6245036;22;20405;-83
2024/02/06 00:44:12;;;;;;;6.77;3.00;;;;;;;;;;6276806;22;20490;-86
2024/02/06 00:46:52;;;;;;;2.50;2.30;;;;;;;;;;6244612;22;20492;-85
2024/02/06 00:49:28;;;;;;;3.57;2.43;;;;;;;;;;6179303;23;20462;-84
2024/02/06 00:52:25;;;;;;;5.87;2.73;;;;;;;;;;6181799;22;20486;-87
2024/02/06 00:55:15;;;;;;;7.50;3.13;;;;;;;;;;6251769;22;20581;-85
2024/02/06 00:57:53;;;;;;;4.00;2.47;;;;;;;;;;6247697;22;20424;-84
2024/02/06 01:00:38;;;;;;;4.37;2.90;;;;;;;;;;6248702;22;20394;-84
2024/02/06 01:03:26;;;;;;;5.10;2.53;;;;;;;;;;6242062;22;20440;-87
2024/02/06 01:06:11;;;;;;;4.87;2.90;;;;;;;;;;6247981;22;20522;-85
2024/02/06 01:08:55;;;;;;;6.50;2.70;;;;;;;;;;6244572;22;20431;-86
2024/02/06 01:11:46;;;;;;;7.10;2.37;;;;;;;;;;6245015;22;21360;-84
2024/02/06 01:14:26;;;;;;;3.53;2.77;;;;;;;;;;6251068;22;20730;-85
2024/02/06 01:17:16;;;;;;;4.30;2.43;;;;;;;;;;6247979;22;21185;-84
2024/02/06 01:20:21;;;;;;;3.17;2.63;;;;;;;;;;6220506;22;20423;-84
2024/02/06 01:23:30;;;;;;;4.13;2.30;;;;;;;;;;6269691;22;20408;-86
2024/02/06 01:26:10;;;;;;;4.10;2.30;;;;;;;;;;6276219;22;20447;-85
2024/02/06 01:28:59;;;;;;;5.83;2.20;;;;;;;;;;6255387;22;20445;-88
2024/02/06 01:31:53;;;;;;;4.13;2.50;;;;;;;;;;6256003;22;20404;-85
2024/02/06 01:34:42;;;;;;;5.60;2.80;;;;;;;;;;6254644;22;20415;-84
2024/02/06 01:38:04;;;;;;;2.93;2.30;;;;;;;;;;6279124;22;20460;-85
2024/02/06 01:40:46;;;;;;;2.33;1.50;;;;;;;;;;6216700;22;20483;-85
2024/02/06 01:43:45;;;;;;;4.33;1.83;;;;;;;;;;6265025;22;20419;-86
2024/02/06 01:46:56;;;;;;;4.17;2.20;;;;;;;;;;6257579;22;20434;-86
2024/02/06 01:49:43;;;;;;;3.93;2.50;;;;;;;;;;6251035;22;20444;-86
2024/02/06 01:52:25;;;;;;;5.20;2.23;;;;;;;;;;6246150;22;20712;-86
2024/02/06 01:55:18;;;;;;;3.37;2.10;;;;;;;;;;6248585;22;20383;-86
2024/02/06 01:58:08;;;;;;;3.60;2.27;;;;;;;;;;6214782;22;20482;-84
2024/02/06 02:00:42;;;;;;;2.13;1.93;;;;;;;;;;6237068;22;20419;-85
2024/02/06 02:06:08;;;;;;;5.47;2.80;;;;;;;;;;6275053;22;20693;-84
2024/02/06 02:08:35;;;;;;;4.80;2.30;;;;;;;;;;6264348;22;20423;-84
2024/02/06 02:11:08;;;;;;;3.20;2.20;;;;;;;;;;6264825;22;20415;-85
2024/02/06 02:13:37;;;;;;;3.70;2.10;;;;;;;;;;6237863;22;20427;-84
2024/02/06 02:16:24;;;;;;;5.50;2.40;;;;;;;;;;6239984;22;20471;-82
2024/02/06 02:19:14;;;;;;;3.23;1.90;;;;;;;;;;6240937;22;20731;-85
2024/02/06 02:21:53;;;;;;;5.87;2.40;;;;;;;;;;6265749;22;20605;-83
2024/02/06 02:24:20;;;;;;;6.70;2.73;;;;;;;;;;6268519;22;20423;-84
2024/02/06 02:26:51;;;;;;;4.37;2.13;;;;;;;;;;6243324;22;20419;-84
2024/02/06 02:29:19;;;;;;;5.40;2.60;;;;;;;;;;6242157;22;20446;-85
2024/02/06 02:31:58;;;;;;;3.70;2.90;;;;;;;;;;6269385;22;20411;-83
2024/02/06 02:34:25;;;;;;;3.63;3.00;;;;;;;;;;6267924;22;20814;-84
2024/02/06 02:36:58;;;;;;;3.13;2.37;;;;;;;;;;6267468;22;21087;-86
2024/02/06 02:39:28;;;;;;;3.67;1.83;;;;;;;;;;6241949;22;20427;-85
2024/02/06 02:42:01;;;;;;;5.17;2.53;;;;;;;;;;6238845;22;20411;-86
2024/02/06 02:44:32;;;;;;;3.47;2.07;;;;;;;;;;6241140;22;20403;-84
2024/02/06 02:46:59;;;;;;;7.30;3.43;;;;;;;;;;6239527;22;20411;-86
2024/02/06 02:49:26;;;;;;;3.93;2.10;;;;;;;;;;6266477;22;20535;-84
2024/02/06 02:51:54;;;;;;;4.60;1.70;;;;;;;;;;6266915;22;20443;-86
2024/02/06 02:54:23;;;;;;;5.67;2.70;;;;;;;;;;6266316;22;20408;-84
2024/02/06 02:56:57;;;;;;;6.30;1.80;;;;;;;;;;6240071;22;20436;-84
2024/02/06 02:59:24;;;;;;;6.00;1.90;;;;;;;;;;6242646;22;20518;-84
2024/02/06 03:01:54;;;;;;;3.80;2.13;;;;;;;;;;6244069;22;20485;-84
2024/02/06 03:04:23;;;;;;;6.43;2.70;;;;;;;;;;6242308;22;20794;-84
2024/02/06 03:06:52;;;;;;;6.07;2.80;;;;;;;;;;6263094;22;20412;-82
2024/02/06 03:09:20;;;;;;;7.30;2.10;;;;;;;;;;6235534;22;20430;-83
2024/02/06 03:11:48;;;;;;;4.23;1.90;;;;;;;;;;6234202;22;20400;-86
2024/02/06 03:14:15;;;;;;;3.50;2.00;;;;;;;;;;6261258;22;20761;-84
2024/02/06 03:16:42;;;;;;;4.27;2.23;;;;;;;;;;6234535;22;20416;-85
2024/02/06 03:19:10;;;;;;;3.30;1.83;;;;;;;;;;6262079;22;20489;-84
2024/02/06 03:21:37;;;;;;;4.83;1.80;;;;;;;;;;6244862;22;20424;-84
2024/02/06 03:24:05;;;;;;;5.67;2.10;;;;;;;;;;6286637;22;20439;-85
2024/02/06 03:26:32;;;;;;;4.53;2.10;;;;;;;;;;6264611;22;20422;-85
2024/02/06 03:29:00;;;;;;;3.90;2.10;;;;;;;;;;6262712;22;20435;-84
2024/02/06 03:31:28;;;;;;;4.20;1.77;;;;;;;;;;6257420;22;20423;-87
2024/02/06 03:33:55;;;;;;;6.40;1.90;;;;;;;;;;6244353;22;20454;-85
2024/02/06 03:36:23;;;;;;;2.20;1.70;;;;;;;;;;6242799;22;20517;-85
2024/02/06 03:38:51;;;;;;;5.73;1.90;;;;;;;;;;6242760;22;21003;-85
2024/02/06 03:41:20;;;;;;;4.30;1.77;;;;;;;;;;6241647;22;20404;-83
2024/02/06 03:43:47;;;;;;;2.40;1.60;;;;;;;;;;6241944;22;20403;-83
2024/02/06 03:46:14;;;;;;;5.03;2.23;;;;;;;;;;6245208;22;20471;-86
2024/02/06 03:48:41;;;;;;;3.80;1.73;;;;;;;;;;6289478;22;20430;-84
2024/02/06 03:51:08;;;;;;;1.93;1.70;;;;;;;;;;6293977;22;20476;-83
2024/02/06 03:53:36;;;;;;;7.93;2.40;;;;;;;;;;6294736;22;20442;-83
2024/02/06 03:56:03;;;;;;;4.13;1.80;;;;;;;;;;6269449;22;20465;-83
2024/02/06 03:58:30;;;;;;;6.00;2.30;;;;;;;;;;6266435;22;20498;-85
2024/02/06 04:00:57;;;;;;;4.23;1.83;;;;;;;;;;6250642;22;20422;-84
2024/02/06 04:03:25;;;;;;;3.20;2.17;;;;;;;;;;6250828;22;20415;-86
2024/02/06 04:05:52;;;;;;;5.80;2.07;;;;;;;;;;6255330;22;20418;-86
2024/02/06 04:08:20;;;;;;;2.60;1.70;;;;;;;;;;6248943;22;20439;-86
2024/02/06 04:10:47;;;;;;;2.73;1.73;;;;;;;;;;6272496;22;20415;-85
2024/02/06 04:13:14;;;;;;;6.63;1.63;;;;;;;;;;6246881;22;20454;-84
2024/02/06 04:15:42;;;;;;;4.83;1.63;;;;;;;;;;6247855;22;20407;-84
2024/02/06 04:18:10;;;;;;;4.33;2.00;;;;;;;;;;6247129;22;20430;-83
2024/02/06 04:20:37;;;;;;;5.40;1.53;;;;;;;;;;6246073;22;20384;-85
2024/02/06 04:23:07;;;;;;;4.00;1.70;;;;;;;;;;6273797;22;20426;-86
2024/02/06 04:25:37;;;;;;;5.10;2.00;;;;;;;;;;6272750;22;20419;-85
2024/02/06 04:28:11;;;;;;;5.40;1.93;;;;;;;;;;6273449;22;20478;-84
2024/02/06 04:30:41;;;;;;;5.20;1.87;;;;;;;;;;6245737;22;20446;-84
2024/02/06 04:33:11;;;;;;;4.83;4.30;;;;;;;;;;6245506;22;20439;-84
2024/02/06 04:35:45;;;;;;;4.93;2.40;;;;;;;;;;6247449;22;20408;-86
2024/02/06 04:38:13;;;;;;;1.93;1.83;;;;;;;;;;6272631;22;20418;-86
2024/02/06 04:40:41;;;;;;;1.50;1.40;;;;;;;;;;6272737;22;20410;-86
2024/02/06 04:43:08;;;;;;;8.57;1.80;;;;;;;;;;6248316;22;20463;-84
2024/02/06 04:45:35;;;;;;;2.53;2.20;;;;;;;;;;6244567;22;20440;-86
2024/02/06 04:48:02;;;;;;;2.13;1.90;;;;;;;;;;6247135;22;20515;-87
2024/02/06 04:50:30;;;;;;;5.50;2.20;;;;;;;;;;6279414;22;20392;-86
2024/02/06 04:53:03;;;;;;;2.60;2.00;;;;;;;;;;6259400;22;20438;-86
2024/02/06 04:55:32;;;;;;;4.43;1.90;;;;;;;;;;6261918;22;20414;-84
2024/02/06 04:58:07;;;;;;;4.30;1.80;;;;;;;;;;6288188;22;20408;-85
2024/02/06 05:00:40;;;;;;;4.13;2.10;;;;;;;;;;6262064;22;20445;-84
2024/02/06 05:03:11;;;;;;;3.10;2.27;;;;;;;;;;6287368;22;20455;-85
2024/02/06 05:06:01;;;;;;;3.70;2.00;;;;;;;;;;6287707;22;20451;-85
2024/02/06 05:08:39;;;;;;;6.10;2.13;;;;;;;;;;6262649;22;20436;-86
2024/02/06 05:11:11;;;;;;;5.30;2.10;;;;;;;;;;6261024;22;20412;-84
2024/02/06 05:13:57;;;;;;;2.33;1.77;;;;;;;;;;6262705;22;20439;-84
2024/02/06 05:16:32;;;;;;;3.03;1.50;;;;;;;;;;6287265;22;20406;-84
2024/02/06 05:19:04;;;;;;;5.53;2.00;;;;;;;;;;6286492;22;20509;-81
2024/02/06 05:21:40;;;;;;;5.30;2.87;;;;;;;;;;6259848;22;20415;-84
2024/02/06 05:24:22;;;;;;;5.33;1.83;;;;;;;;;;6262309;22;20514;-84
2024/02/06 05:26:58;;;;;;;3.80;1.83;;;;;;;;;;6260619;22;20457;-83
2024/02/06 05:29:28;;;;;;;4.17;1.80;;;;;;;;;;6255490;22;20440;-84
2024/02/06 05:32:10;;;;;;;4.63;1.90;;;;;;;;;;6281519;22;20423;-84
2024/02/06 05:35:09;;;;;;;5.70;1.73;;;;;;;;;;6284181;22;20458;-86
2024/02/06 05:37:39;;;;;;;1.90;1.60;;;;;;;;;;6201725;22;20446;-87
2024/02/06 05:40:12;;;;;;;5.23;2.73;;;;;;;;;;6247422;22;20436;-86
2024/02/06 05:42:47;;;;;;;2.50;2.10;;;;;;;;;;6274129;22;20407;-85
2024/02/06 05:45:26;;;;;;;3.43;1.67;;;;;;;;;;6249332;22;21062;-87
2024/02/06 05:51:33;;;;;;;4.83;2.07;;;;;;;;;;6285158;22;20919;-86
2024/02/06 05:57:35;;;;;;;4.10;2.37;;;;;;;;;;6285335;22;20421;-86
2024/02/06 06:00:40;;;;;;;2.27;2.07;;;;;;;;;;6261994;22;20443;-84
2024/02/06 06:03:26;;;;;;;8.30;2.20;;;;;;;;;;6261848;22;20407;-85
2024/02/06 06:06:20;;;;;;;3.03;2.33;;;;;;;;;;6264439;22;20412;-85
2024/02/06 06:09:25;;;;;;;8.27;2.80;;;;;;;;;;6255190;22;20756;-82
2024/02/06 06:12:09;;;;;;;;;;;;;;;;;;;;;
2024/02/06 06:15:15;;;;;;;8.30;3.10;;;;;;;;;;6286503;22;20383;-85
2024/02/06 06:18:06;;;;;;;7.70;2.23;;;;;;;;;;6252647;22;20408;-85
2024/02/06 06:20:50;;;;;;;4.00;2.23;;;;;;;;;;6242569;22;20403;-87
2024/02/06 06:23:39;;;;;;;6.00;2.47;;;;;;;;;;6248977;22;20408;-83
2024/02/06 06:26:38;;;;;;;2.13;1.73;;;;;;;;;;6250796;22;20774;-86
2024/02/06 06:29:24;;;;;;;5.97;2.27;;;;;;;;;;6204953;22;20427;-84
2024/02/06 06:32:17;;;;;;;4.47;2.63;;;;;;;;;;6252443;22;20697;-86
2024/02/06 06:34:50;;;;;;;6.30;2.57;;;;;;;;;;6258192;22;20469;-85
2024/02/06 06:37:24;;;;;;;4.57;2.13;;;;;;;;;;6255071;22;20442;-85
2024/02/06 06:40:29;;;;;;;5.73;2.70;;;;;;;;;;6259219;22;20431;-85
2024/02/06 06:43:26;;;;;;;5.37;2.53;;;;;;;;;;6258721;22;20467;-85
2024/02/06 06:46:02;;;;;;;4.40;2.90;;;;;;;;;;6248107;22;20469;-85
2024/02/06 06:48:41;;;;;;;3.77;1.87;;;;;;;;;;6249876;22;20439;-87
2024/02/06 06:51:42;;;;;;;5.33;2.30;;;;;;;;;;6249515;22;20434;-85
2024/02/06 06:54:39;;;;;;;3.83;2.13;;;;;;;;;;6251121;22;20431;-84
2024/02/06 06:57:10;;;;;;;5.03;2.20;;;;;;;;;;6261115;22;20410;-85
2024/02/06 07:00:07;;;;;;;4.77;2.50;;;;;;;;;;6247837;22;20727;-84
2024/02/06 07:03:14;;;;;;;8.07;2.37;;;;;;;;;;6245893;22;20407;-84
2024/02/06 07:05:56;;;;;;;7.80;4.10;;;;;;;;;;6265318;22;20455;-85
2024/02/06 07:08:40;;;;;;;9.80;2.73;;;;;;;;;;6242520;22;20466;-84
2024/02/06 07:11:51;;;;;;;4.07;2.10;;;;;;;;;;6242826;22;20404;-83
2024/02/06 07:14:53;;;;;;;6.33;2.43;;;;;;;;;;6216270;22;20446;-84
2024/02/06 07:17:42;;;;;;;7.77;2.50;;;;;;;;;;6237205;22;20499;-85
2024/02/06 07:20:31;;;;;;;7.00;2.63;;;;;;;;;;6270455;22;20455;-87
2024/02/06 07:23:24;;;;;;;4.27;2.47;;;;;;;;;;6244997;22;20423;-82
2024/02/06 07:26:03;;;;;;;4.73;2.60;;;;;;;;;;6251414;22;20423;-83
2024/02/06 07:32:04;;;;;;;5.40;2.70;;;;;;;;;;6255333;22;20388;-85
2024/02/06 07:35:00;;;;;;;6.07;2.30;;;;;;;;;;6245975;22;20435;-85
2024/02/06 07:37:44;;;;;;;3.40;2.53;;;;;;;;;;6249277;22;20423;-84
2024/02/06 07:46:52;;;;;;;6.97;2.53;;;;;;;;;;6237580;22;20403;-83
2024/02/06 07:50:05;;;;;;;4.80;2.90;;;;;;;;;;6271213;22;20457;-85
2024/02/06 07:53:04;;;;;;;9.20;4.70;;;;;;;;;;6273145;22;20361;-82
2024/02/06 07:56:07;;;;;;;;;;;;;;;;;;;;;
2024/02/06 07:58:53;;;;;;;3.20;2.40;;;;;;;;;;6273036;22;20489;-83
2024/02/06 08:02:15;;;;;;;8.43;2.60;;;;;;;;;;6250186;22;20379;-85
2024/02/06 08:05:29;;;;;;;6.97;2.83;;;;;;;;;;6251261;22;20431;-85
2024/02/06 08:08:13;;;;;;;5.03;2.60;;;;;;;;;;6248512;22;20395;-84
2024/02/06 08:10:51;;;;;;;5.27;2.70;;;;;;;;;;6272573;22;20881;-83
2024/02/06 08:16:48;;;;;;;4.30;2.60;;;;;;;;;;6270450;22;20798;-84
2024/02/06 08:19:33;;;;;;;;;;;;;;;;;;;;;
2024/02/06 08:22:47;;;;;;;5.50;2.33;;;;;;;;;;6234676;22;20405;-85
2024/02/06 08:25:59;;;;;;;4.57;2.50;;;;;;;;;;6126072;23;20428;-85
2024/02/06 08:28:50;;;;;;;5.37;3.17;;;;;;;;;;6102078;23;20548;-85
2024/02/06 08:31:43;;;;;;;3.73;2.80;;;;;;;;;;6192806;22;21061;-83
2024/02/06 08:34:47;;;;;;;4.30;2.57;;;;;;;;;;6159230;23;20462;-87
2024/02/06 08:37:44;;;;;;;5.90;2.17;;;;;;;;;;6271832;22;20416;-84
2024/02/06 08:40:32;;;;;;;8.60;2.87;;;;;;;;;;6250279;22;20443;-84
2024/02/06 08:43:30;;;;;;;3.17;2.20;;;;;;;;;;6248372;22;20415;-84
2024/02/06 08:46:47;;;;;;;5.30;2.50;;;;;;;;;;6234552;22;20404;-86
2024/02/06 08:50:06;;;;;;;;;;;;;;;;;;;;;
2024/02/06 08:53:10;;;;;;;5.80;2.60;;;;;;;;;;6273275;22;20422;-85
2024/02/06 08:56:16;;;;;;;;;;;;;;;;;;;;;
2024/02/06 08:59:13;;;;;;;4.70;2.40;;;;;;;;;;6274092;22;20545;-84
2024/02/06 09:14:17;;;;;;;4.83;2.50;;;;;;;;;;6167572;22;20480;-84
2024/02/06 09:17:24;;;;;;;5.97;2.73;;;;;;;;;;6252527;22;20408;-85
2024/02/06 09:20:23;;;;;;;4.47;3.23;;;;;;;;;;6239401;22;20847;-84
2024/02/06 09:27:17;;;;;;;;;;;;;;;;;;;;;
2024/02/06 09:33:33;;;;;;;2.73;2.53;;;;;;;;;;6267776;22;20392;-86
2024/02/06 09:39:45;;;;;;;4.93;2.90;;;;;;;;;;6267143;22;20464;-86
2024/02/06 09:42:40;;;;;;;7.40;2.20;;;;;;;;;;6279985;22;20477;-86
2024/02/06 09:45:48;;;;;;;5.83;2.60;;;;;;;;;;6233861;22;20414;-85
2024/02/06 09:56:57;;;;;;;4.70;2.37;;;;;;;;;;6244464;22;20520;-86
2024/02/06 09:59:49;;;;;;;4.17;2.77;;;;;;;;;;6269436;22;20438;-84
2024/02/06 10:05:21;;;;;;;3.73;2.20;;;;;;;;;;6209708;22;20445;-85
2024/02/06 10:15:51;;;;;;;6.90;2.50;;;;;;;;;;6242789;22;20431;-84
2024/02/06 10:18:55;;;;;;;5.23;2.70;;;;;;;;;;6103582;23;20424;-84
2024/02/06 10:22:20;;;;;;;9.50;2.60;;;;;;;;;;6138546;23;20400;-84
2024/02/06 10:25:42;;;;;;;;;;;;;;;;;;;;;
2024/02/06 10:31:58;;;;;;;;;;;;;;;;;;;;;
2024/02/06 10:38:17;;;;;;;3.40;2.70;;;;;;;;;;6035923;23;20446;-85
2024/02/06 10:41:21;;;;;;;7.47;2.60;;;;;;;;;;6019824;23;20441;-85
2024/02/06 10:44:11;;;;;;;8.23;2.77;;;;;;;;;;5991758;23;20415;-85
2024/02/06 10:46:51;;;;;;;5.33;2.87;;;;;;;;;;6180809;23;20455;-87
2024/02/06 10:50:20;;;;;;;4.43;3.37;;;;;;;;;;6162523;23;20518;-87
2024/02/06 10:56:55;;;;;;;5.23;2.73;;;;;;;;;;6167269;23;20398;-86
2024/02/06 10:59:36;;;;;;;4.87;2.93;;;;;;;;;;6155700;23;20426;-84
2024/02/06 11:02:46;;;;;;;11.60;3.37;;;;;;;;;;6120174;23;20454;-86
2024/02/06 11:05:38;;;;;;;5.10;2.90;;;;;;;;;;6156211;23;20417;-85
2024/02/06 11:08:44;;;;;;;5.27;2.97;;;;;;;;;;6182170;23;20505;-86
2024/02/06 11:11:42;;;;;;;6.80;2.83;;;;;;;;;;6157123;23;20472;-86
2024/02/06 11:14:32;;;;;;;8.87;2.90;;;;;;;;;;6181487;23;20503;-87
2024/02/06 11:21:28;;;;;;;11.57;3.47;;;;;;;;;;6148298;23;20488;-86
2024/02/06 11:24:40;;;;;;;5.80;3.43;;;;;;;;;;6127459;23;20578;-85
2024/02/06 11:27:24;;;;;;;4.57;3.00;;;;;;;;;;6126547;23;20403;-86
2024/02/06 11:30:28;;;;;;;7.97;3.67;;;;;;;;;;6217382;23;20451;-85
2024/02/06 11:33:41;;;;;;;5.27;3.00;;;;;;;;;;6204462;23;20404;-85
2024/02/06 11:36:50;;;;;;;4.13;3.00;;;;;;;;;;6234449;23;20758;-84
2024/02/06 11:43:15;;;;;;;6.70;3.43;;;;;;;;;;6218213;23;20391;-85
2024/02/06 11:46:05;;;;;;;7.83;3.00;;;;;;;;;;6228257;23;20413;-83
2024/02/06 11:52:35;;;;;;;6.10;3.10;;;;;;;;;;6255569;22;20375;-84
2024/02/06 11:55:29;;;;;;;3.93;3.00;;;;;;;;;;6211366;23;20482;-83
2024/02/06 11:58:34;;;;;;;4.60;2.77;;;;;;;;;;6220084;23;20765;-84
2024/02/06 12:01:39;;;;;;;;;;;;;;;;;;;;;
2024/02/06 12:04:32;;;;;;;6.80;3.20;;;;;;;;;;6240228;23;20552;-86
2024/02/06 12:07:16;;;;;;;5.37;3.20;;;;;;;;;;6216461;23;20417;-85
2024/02/06 12:13:33;;;;;;;8.63;3.60;;;;;;;;;;6245647;23;20435;-84
2024/02/06 12:16:13;;;;;;;6.47;3.17;;;;;;;;;;6254890;23;20411;-85
2024/02/06 12:19:30;;;;;;;8.13;3.23;;;;;;;;;;6227353;23;20429;-83
2024/02/06 12:22:34;;;;;;;5.67;3.80;;;;;;;;;;6244996;23;20408;-86
2024/02/06 12:25:41;;;;;;;22.87;3.63;;;;;;;;;;6217751;23;20498;-83
2024/02/06 12:28:25;;;;;;;4.87;3.50;;;;;;;;;;6235666;23;20408;-84
2024/02/06 12:31:19;;;;;;;8.53;3.23;;;;;;;;;;6217455;23;20579;-85
2024/02/06 12:33:53;;;;;;;6.30;3.40;;;;;;;;;;6216480;23;20460;-86
2024/02/06 12:36:32;;;;;;;6.40;3.97;;;;;;;;;;6243503;23;20804;-84
2024/02/06 12:39:16;;;;;;;6.13;2.80;;;;;;;;;;6217353;23;20443;-83
2024/02/06 12:42:00;;;;;;;6.47;2.70;;;;;;;;;;6218030;23;20420;-84
2024/02/06 12:44:38;;;;;;;4.17;2.73;;;;;;;;;;6239095;23;20427;-85
2024/02/06 12:47:09;;;;;;;10.67;2.87;;;;;;;;;;6238646;23;20427;-84
2024/02/06 12:49:44;;;;;;;5.60;3.17;;;;;;;;;;6214709;23;20432;-85
2024/02/06 12:52:17;;;;;;;4.60;2.83;;;;;;;;;;6245631;23;20404;-85
2024/02/06 12:54:48;;;;;;;7.30;3.10;;;;;;;;;;6246552;23;20444;-84
2024/02/06 12:57:17;;;;;;;7.10;4.10;;;;;;;;;;6212277;23;20416;-85
2024/02/06 12:59:57;;;;;;;6.00;2.60;;;;;;;;;;6217689;23;20614;-84
2024/02/06 13:02:26;;;;;;;4.20;3.43;;;;;;;;;;6240758;23;20479;-86
2024/02/06 13:04:56;;;;;;;8.23;4.17;;;;;;;;;;6215327;23;20502;-84
2024/02/06 13:07:28;;;;;;;9.03;2.70;;;;;;;;;;6212847;23;20408;-85
2024/02/06 13:10:03;;;;;;;5.00;2.63;;;;;;;;;;6217228;23;20429;-85
2024/02/06 13:12:45;;;;;;;6.77;3.10;;;;;;;;;;6219447;23;20910;-87
2024/02/06 13:15:24;;;;;;;7.20;3.30;;;;;;;;;;6221800;23;20474;-85
2024/02/06 13:17:57;;;;;;;7.20;3.30;;;;;;;;;;6247830;23;20416;-86
2024/02/06 13:20:39;;;;;;;7.60;2.53;;;;;;;;;;6222541;23;20423;-85
2024/02/06 13:23:21;;;;;;;6.20;2.90;;;;;;;;;;6216651;23;20434;-84
2024/02/06 13:25:48;;;;;;;3.03;2.43;;;;;;;;;;6240498;23;20428;-86
2024/02/06 13:28:25;;;;;;;5.83;3.60;;;;;;;;;;6241481;23;20470;-87
2024/02/06 13:31:07;;;;;;;5.53;2.67;;;;;;;;;;6214545;23;20420;-85
2024/02/06 13:34:16;;;;;;;7.43;3.10;;;;;;;;;;6217282;23;20405;-85
2024/02/06 13:36:48;;;;;;;6.70;2.70;;;;;;;;;;6239906;23;20457;-86
2024/02/06 13:42:28;;;;;;;2.67;2.33;;;;;;;;;;6233024;23;20408;-84
2024/02/06 13:45:15;;;;;;;4.60;3.13;;;;;;;;;;6214919;23;20408;-85
2024/02/06 13:48:16;;;;;;;3.87;2.47;;;;;;;;;;6222667;23;20496;-85
2024/02/06 13:51:03;;;;;;;3.97;2.43;;;;;;;;;;6226112;23;20408;-86
2024/02/06 13:54:10;;;;;;;3.57;2.40;;;;;;;;;;6219985;23;20440;-86
2024/02/06 13:56:41;;;;;;;5.20;2.67;;;;;;;;;;6216044;23;20423;-87
2024/02/06 13:59:13;;;;;;;2.93;2.10;;;;;;;;;;6213157;23;20428;-85
2024/02/06 14:01:54;;;;;;;4.27;2.13;;;;;;;;;;6212405;23;20575;-86
2024/02/06 14:04:49;;;;;;;3.53;2.23;;;;;;;;;;6217771;23;20396;-85
2024/02/06 14:07:49;;;;;;;2.70;2.43;;;;;;;;;;6212483;23;20445;-86
2024/02/06 14:10:48;;;;;;;4.83;2.50;;;;;;;;;;6204655;23;20507;-83
2024/02/06 14:13:52;;;;;;;4.93;2.70;;;;;;;;;;6199803;23;20600;-83
2024/02/06 14:16:44;;;;;;;5.37;2.33;;;;;;;;;;6217642;22;20409;-87
2024/02/06 14:19:43;;;;;;;5.23;3.27;;;;;;;;;;6220245;23;20550;-86
2024/02/06 14:25:25;;;;;;;4.70;2.43;;;;;;;;;;6231505;23;20412;-84
2024/02/06 14:28:01;;;;;;;3.30;2.70;;;;;;;;;;6213996;23;20427;-85
2024/02/06 14:30:37;;;;;;;5.50;2.40;;;;;;;;;;6238699;23;20405;-86
2024/02/06 14:33:08;;;;;;;5.60;2.30;;;;;;;;;;6212560;23;20436;-84
2024/02/06 14:35:48;;;;;;;6.53;2.20;;;;;;;;;;6210494;23;20464;-86
2024/02/06 14:38:18;;;;;;;5.90;2.20;;;;;;;;;;6237401;23;20495;-84
2024/02/06 14:41:07;;;;;;;;;;;;;;;;;;;;;
2024/02/06 14:43:44;;;;;;;3.30;2.33;;;;;;;;;;6219020;23;20665;-85
2024/02/06 14:46:29;;;;;;;3.63;2.30;;;;;;;;;;6239244;23;20435;-87
2024/02/06 14:51:35;;;;;;;2.33;1.80;;;;;;;;;;6235344;22;21395;-88
2024/02/06 14:54:19;;;;;;;3.13;2.47;;;;;;;;;;6212694;23;20411;-86
2024/02/06 14:56:55;;;;;;;3.73;2.13;;;;;;;;;;6238638;22;20954;-86
2024/02/06 14:59:29;;;;;;;2.80;2.13;;;;;;;;;;6239057;22;20432;-86
2024/02/06 15:02:11;;;;;;;5.03;2.10;;;;;;;;;;6200111;23;20466;-87
2024/02/06 15:04:56;;;;;;;2.83;2.20;;;;;;;;;;6206034;23;20432;-84
2024/02/06 15:07:30;;;;;;;5.03;2.20;;;;;;;;;;6211878;23;20743;-86
2024/02/06 15:10:03;;;;;;;3.70;2.30;;;;;;;;;;6210553;23;20452;-86
2024/02/06 15:12:34;;;;;;;8.57;2.30;;;;;;;;;;6208802;23;20404;-85
2024/02/06 15:15:09;;;;;;;3.63;2.40;;;;;;;;;;6238744;23;20448;-84
2024/02/06 15:17:46;;;;;;;;;;;;;;;;;;;;;
2024/02/06 15:20:20;;;;;;;2.30;2.10;;;;;;;;;;6237680;22;20458;-86
2024/02/06 15:23:04;;;;;;;5.40;2.50;;;;;;;;;;6238715;23;20396;-85
2024/02/06 15:25:49;;;;;;;2.80;1.90;;;;;;;;;;6198148;23;20408;-86
2024/02/06 15:28:54;;;;;;;7.83;2.50;;;;;;;;;;6240202;23;20416;-84
2024/02/06 15:31:46;;;;;;;5.03;2.53;;;;;;;;;;6238522;23;20807;-85
2024/02/06 15:34:25;;;;;;;2.37;1.93;;;;;;;;;;6203706;23;20527;-86
2024/02/06 15:37:14;;;;;;;2.00;1.53;;;;;;;;;;6226746;23;20486;-86
2024/02/06 15:39:56;;;;;;;3.70;3.00;;;;;;;;;;6237630;22;20478;-86
2024/02/06 15:42:28;;;;;;;5.87;2.47;;;;;;;;;;6242448;23;20408;-86
2024/02/06 15:45:10;;;;;;;3.83;1.87;;;;;;;;;;6221916;23;20412;-86
2024/02/06 15:47:45;;;;;;;6.63;2.13;;;;;;;;;;6247551;23;20416;-87
2024/02/06 15:50:19;;;;;;;2.77;1.60;;;;;;;;;;6216875;23;20492;-86
2024/02/06 15:53:18;;;;;;;3.93;1.90;;;;;;;;;;6222473;23;20415;-85
2024/02/06 15:55:49;;;;;;;2.57;2.20;;;;;;;;;;6208092;23;20526;-87
2024/02/06 15:58:45;;;;;;;3.43;2.37;;;;;;;;;;6221071;23;20420;-86
2024/02/06 16:01:13;;;;;;;5.17;2.03;;;;;;;;;;6214480;23;20444;-86
2024/02/06 16:03:42;;;;;;;2.80;2.03;;;;;;;;;;6215888;23;20431;-85
2024/02/06 16:06:44;;;;;;;7.30;2.43;;;;;;;;;;6214840;23;21011;-86
2024/02/06 16:09:17;;;;;;;5.53;2.03;;;;;;;;;;6243759;23;21004;-85
2024/02/06 16:12:05;;;;;;;4.50;1.60;;;;;;;;;;6196432;23;20483;-86
2024/02/06 16:14:49;;;;;;;2.30;1.80;;;;;;;;;;6218062;23;20947;-86
2024/02/06 16:17:46;;;;;;;5.10;2.30;;;;;;;;;;6216745;23;20424;-86
2024/02/06 16:20:44;;;;;;;3.60;2.17;;;;;;;;;;6221378;23;20392;-86
2024/02/06 16:23:26;;;;;;;10.90;3.27;;;;;;;;;;6218773;23;20511;-86
2024/02/06 16:26:08;;;;;;;4.23;2.20;;;;;;;;;;6199745;23;20401;-85
2024/02/06 16:28:42;;;;;;;4.00;2.13;;;;;;;;;;6222219;22;21373;-84
2024/02/06 16:31:16;;;;;;;7.93;2.80;;;;;;;;;;6253814;22;20411;-84
2024/02/06 16:33:59;;;;;;;3.40;1.80;;;;;;;;;;6256909;22;20411;-84
2024/02/06 16:36:32;;;;;;;4.10;2.10;;;;;;;;;;6250249;22;20512;-87
2024/02/06 16:39:04;;;;;;;3.50;2.13;;;;;;;;;;6254670;22;20437;-86
2024/02/06 16:41:39;;;;;;;3.03;2.37;;;;;;;;;;6256006;22;20494;-86
2024/02/06 16:44:47;;;;;;;4.50;2.30;;;;;;;;;;6287171;22;20452;-84
2024/02/06 16:47:24;;;;;;;3.73;2.60;;;;;;;;;;6285545;22;21180;-86
2024/02/06 16:50:03;;;;;;;7.00;2.97;;;;;;;;;;6292990;22;20419;-86
2024/02/06 16:52:57;;;;;;;;;;;;;;;;;;;;;
2024/02/06 16:55:58;;;;;;;4.47;2.00;;;;;;;;;;6294059;22;20502;-84
2024/02/06 16:58:52;;;;;;;3.33;2.37;;;;;;;;;;6270101;22;20399;-85
2024/02/06 17:01:42;;;;;;;5.67;3.00;;;;;;;;;;6270237;22;20400;-84
2024/02/06 17:04:41;;;;;;;3.40;1.90;;;;;;;;;;6285502;22;20419;-86
2024/02/06 17:07:29;;;;;;;5.73;2.73;;;;;;;;;;6227336;22;20415;-86
2024/02/06 17:10:16;;;;;;;6.83;2.77;;;;;;;;;;6260733;22;20419;-85
2024/02/06 17:13:22;;;;;;;3.50;2.40;;;;;;;;;;6248269;22;20549;-85
2024/02/06 17:16:17;;;;;;;5.73;2.83;;;;;;;;;;6270527;22;20462;-83
2024/02/06 17:18:59;;;;;;;3.37;2.30;;;;;;;;;;6277266;22;20465;-84
2024/02/06 17:21:37;;;;;;;5.10;2.90;;;;;;;;;;6257669;22;20412;-84
2024/02/06 17:24:18;;;;;;;4.00;1.93;;;;;;;;;;6266813;22;20726;-85
2024/02/06 17:26:58;;;;;;;6.70;2.70;;;;;;;;;;6277833;22;20430;-83
2024/02/06 17:29:40;;;;;;;3.77;2.30;;;;;;;;;;6279475;22;20432;-86
2024/02/06 17:35:59;;;;;;;6.20;2.73;;;;;;;;;;6125247;23;20502;-83
2024/02/06 17:38:36;;;;;;;4.70;2.83;;;;;;;;;;6124017;23;20436;-84
2024/02/06 17:44:36;;;;;;;4.50;2.50;;;;;;;;;;6128153;23;20495;-84
2024/02/06 17:47:04;;;;;;;6.37;2.70;;;;;;;;;;6146126;22;20475;-83
2024/02/06 17:49:54;;;;;;;4.30;2.80;;;;;;;;;;6248424;22;20507;-85
2024/02/06 17:52:38;;;;;;;4.30;2.13;;;;;;;;;;6248862;22;20443;-84
2024/02/06 17:55:37;;;;;;;5.00;2.50;;;;;;;;;;6242303;22;20500;-85
2024/02/06 17:58:12;;;;;;;5.47;3.63;;;;;;;;;;6239566;22;20419;-85
2024/02/06 18:01:05;;;;;;;5.40;2.70;;;;;;;;;;6276628;22;20443;-83
2024/02/06 18:03:56;;;;;;;5.70;3.20;;;;;;;;;;6254046;22;20533;-85
2024/02/06 18:07:12;;;;;;;6.87;3.20;;;;;;;;;;6227879;22;20403;-83
2024/02/06 18:10:14;;;;;;;5.73;2.70;;;;;;;;;;6242954;22;20432;-83
2024/02/06 18:13:04;;;;;;;4.40;2.53;;;;;;;;;;6247235;22;20411;-85
2024/02/06 18:15:44;;;;;;;3.87;2.50;;;;;;;;;;6248593;22;20438;-85
2024/02/06 18:21:28;;;;;;;7.80;2.83;;;;;;;;;;6272439;22;20429;-85
2024/02/06 18:24:25;;;;;;;2.97;1.77;;;;;;;;;;6244296;22;20396;-85
2024/02/06 18:27:29;;;;;;;3.07;2.10;;;;;;;;;;6259212;22;20461;-85
2024/02/06 18:30:21;;;;;;;;;;;;;;;;;;;;;
2024/02/06 18:33:15;;;;;;;4.83;1.83;;;;;;;;;;6272907;22;20635;-85
2024/02/06 18:35:51;;;;;;;3.90;1.93;;;;;;;;;;6274355;22;20446;-85